Hinsdale, New York
Current Conditions -  °F | °C
As of 8:15 AM on Friday 24 Oct 2014 (Local Time) from KOLE Reporting Station
Haze Haze  
Wind Chill: 37°   Ceiling: 400
Heat Index: 37°   Visibility: 5mi
Dew Point: 37°   Wind: 3mph
Humidity: 100%   Direction: 300°WNW
Pressure: 30.01"   Gusts: NA
Location:  42.16°N, 78.38°W
Report Text: KOLE 241215Z AUTO 30003KT 5SM BR OVC004 03/03 A3001 RMK AO2
Loading
Personal Weather Stations






























Interactive Weather Map
Tropical Storm Tracking
New forecast layout! Learn more

10-Day Weather Forecast

Advertisements
Track Severe Weather on mobile